メインページ
METAR-TAF:

METAR-TAF

空港 :

Chatham-Kent Municipal Airport

チャタム・ケント, オンタリオ州, カナダ

緯度: 42-18-22N, 経度: 82-04-54W, 海抜: 197m

現時点の気象観測

当レポートは27分前の20:00(UTC)に作成
南西の風 7kt
気温 0°C
湿度 69%
気圧 1029 hPa
視程: 14.5km
高度6000ftの雲は散在している

METAR: CYCK 072000Z AUTO 22007KT 9SM SCT060 00/M05 A3039 RMK SLP302

時間: 15:27 (20:27 UTC)


TAF: 見つかりません

4,000以上の空港の気象観測と天気予報(METAR報とTAF報)

利用可能な観測所は地図上に黄色い丸と赤い丸で示す。

丸の上にカーソルを重ねると観測所名を参照できる。

次にクリックすると気象観測と天気予報を参照できる。

マップの切り替え:黒色「×」印の緑ボタンをクリックして拡大、「-」印の緑ボタンをクリックして縮小、緑色の三角印をクリックして隣りの地図に切り替え


METAR-TAF: